sensor_id;sensor_type;location;lat;lon;timestamp;pressure;altitude;pressure_sealevel;temperature;humidity
10060;BME280;5069;49.306;8.636;2023-02-01T00:02:36;101161.69;;;5.71;100.00
10060;BME280;5069;49.306;8.636;2023-02-01T00:05:40;101159.94;;;5.70;100.00
10060;BME280;5069;49.306;8.636;2023-02-01T00:08:42;101164.28;;;5.70;100.00
10060;BME280;5069;49.306;8.636;2023-02-01T00:11:43;101166.91;;;5.73;100.00
10060;BME280;5069;49.306;8.636;2023-02-01T00:14:46;101173.00;;;5.76;100.00
10060;BME280;5069;49.306;8.636;2023-02-01T00:17:47;101159.94;;;5.75;100.00
10060;BME280;5069;49.306;8.636;2023-02-01T00:20:48;101158.19;;;5.75;100.00
10060;BME280;5069;49.306;8.636;2023-02-01T00:23:50;101157.34;;;5.75;100.00
10060;BME280;5069;49.306;8.636;2023-02-01T00:26:51;101156.47;;;5.68;100.00
10060;BME280;5069;49.306;8.636;2023-02-01T00:29:54;101152.13;;;5.69;100.00
10060;BME280;5069;49.306;8.636;2023-02-01T00:32:56;101158.19;;;5.71;100.00
10060;BME280;5069;49.306;8.636;2023-02-01T00:36:02;101148.59;;;5.70;100.00
10060;BME280;5069;49.306;8.636;2023-02-01T00:39:04;101142.50;;;5.68;100.00
10060;BME280;5069;49.306;8.636;2023-02-01T00:42:06;101146.00;;;5.74;100.00
10060;BME280;5069;49.306;8.636;2023-02-01T00:45:07;101142.47;;;5.75;100.00
10060;BME280;5069;49.306;8.636;2023-02-01T00:48:09;101142.50;;;5.71;100.00
10060;BME280;5069;49.306;8.636;2023-02-01T00:51:14;101134.66;;;5.71;100.00
10060;BME280;5069;49.306;8.636;2023-02-01T00:54:16;101145.97;;;5.79;100.00
10060;BME280;5069;49.306;8.636;2023-02-01T00:57:17;101148.59;;;5.73;100.00
10060;BME280;5069;49.306;8.636;2023-02-01T01:00:18;101159.06;;;5.79;100.00
10060;BME280;5069;49.306;8.636;2023-02-01T01:03:20;101158.16;;;5.81;100.00
10060;BME280;5069;49.306;8.636;2023-02-01T01:06:25;101153.81;;;5.82;100.00
10060;BME280;5069;49.306;8.636;2023-02-01T01:09:26;101146.84;;;5.78;100.00
10060;BME280;5069;49.306;8.636;2023-02-01T01:12:29;101138.09;;;5.82;100.00
10060;BME280;5069;49.306;8.636;2023-02-01T01:15:30;101138.13;;;5.76;100.00
10060;BME280;5069;49.306;8.636;2023-02-01T01:18:33;101117.22;;;5.80;100.00
10060;BME280;5069;49.306;8.636;2023-02-01T01:21:34;101131.13;;;5.81;100.00
10060;BME280;5069;49.306;8.636;2023-02-01T01:24:36;101122.41;;;5.85;100.00
10060;BME280;5069;49.306;8.636;2023-02-01T01:27:37;101139.84;;;5.83;100.00
10060;BME280;5069;49.306;8.636;2023-02-01T01:30:39;101139.84;;;5.83;100.00
10060;BME280;5069;49.306;8.636;2023-02-01T01:33:41;101148.59;;;5.83;100.00
10060;BME280;5069;49.306;8.636;2023-02-01T01:36:42;101143.34;;;5.82;100.00
10060;BME280;5069;49.306;8.636;2023-02-01T01:39:44;101137.25;;;5.86;100.00
10060;BME280;5069;49.306;8.636;2023-02-01T01:42:45;101134.63;;;5.83;100.00
10060;BME280;5069;49.306;8.636;2023-02-01T01:45:48;101150.34;;;5.86;100.00
10060;BME280;5069;49.306;8.636;2023-02-01T01:48:56;101153.81;;;5.87;100.00
10060;BME280;5069;49.306;8.636;2023-02-01T01:52:01;101153.81;;;5.85;100.00
10060;BME280;5069;49.306;8.636;2023-02-01T01:55:04;101145.13;;;5.80;100.00
10060;BME280;5069;49.306;8.636;2023-02-01T01:58:08;101127.66;;;5.88;100.00
10060;BME280;5069;49.306;8.636;2023-02-01T02:01:11;101132.91;;;5.88;100.00
10060;BME280;5069;49.306;8.636;2023-02-01T02:04:13;101140.75;;;5.97;100.00
10060;BME280;5069;49.306;8.636;2023-02-01T02:07:18;101135.50;;;5.94;100.00
10060;BME280;5069;49.306;8.636;2023-02-01T02:10:21;101130.28;;;5.91;100.00
10060;BME280;5069;49.306;8.636;2023-02-01T02:13:48;101120.69;;;5.96;100.00
10060;BME280;5069;49.306;8.636;2023-02-01T02:24:22;101148.59;;;5.88;100.00
10060;BME280;5069;49.306;8.636;2023-02-01T02:34:56;101157.31;;;5.90;100.00
10060;BME280;5069;49.306;8.636;2023-02-01T02:38:20;101148.59;;;5.87;100.00
10060;BME280;5069;49.306;8.636;2023-02-01T02:41:27;101131.13;;;5.93;100.00
10060;BME280;5069;49.306;8.636;2023-02-01T02:45:03;101145.97;;;5.90;100.00
10060;BME280;5069;49.306;8.636;2023-02-01T02:49:19;101118.94;;;5.89;100.00
10060;BME280;5069;49.306;8.636;2023-02-01T02:52:18;101110.22;;;5.86;100.00
10060;BME280;5069;49.306;8.636;2023-02-01T02:55:57;101084.91;;;5.94;100.00
10060;BME280;5069;49.306;8.636;2023-02-01T02:59:21;101085.78;;;5.94;100.00
10060;BME280;5069;49.306;8.636;2023-02-01T03:02:43;101100.63;;;5.92;100.00
10060;BME280;5069;49.306;8.636;2023-02-01T03:06:12;101091.03;;;5.90;100.00
10060;BME280;5069;49.306;8.636;2023-02-01T03:09:26;101098.88;;;5.88;100.00
10060;BME280;5069;49.306;8.636;2023-02-01T03:12:28;101088.41;;;5.91;100.00
10060;BME280;5069;49.306;8.636;2023-02-01T03:16:13;101098.84;;;5.94;100.00
10060;BME280;5069;49.306;8.636;2023-02-01T03:22:24;101098.00;;;5.95;100.00
10060;BME280;5069;49.306;8.636;2023-02-01T03:25:30;101098.03;;;5.92;100.00
10060;BME280;5069;49.306;8.636;2023-02-01T03:28:34;101102.38;;;5.87;100.00
10060;BME280;5069;49.306;8.636;2023-02-01T03:31:40;101103.22;;;5.86;100.00
10060;BME280;5069;49.306;8.636;2023-02-01T03:34:43;101097.13;;;5.89;100.00
10060;BME280;5069;49.306;8.636;2023-02-01T03:37:45;101091.03;;;5.91;100.00
10060;BME280;5069;49.306;8.636;2023-02-01T03:40:53;101087.56;;;5.92;100.00
10060;BME280;5069;49.306;8.636;2023-02-01T03:44:02;101092.78;;;5.92;100.00
10060;BME280;5069;49.306;8.636;2023-02-01T03:47:09;101091.03;;;5.88;100.00
10060;BME280;5069;49.306;8.636;2023-02-01T03:50:20;101091.03;;;5.88;100.00
10060;BME280;5069;49.306;8.636;2023-02-01T03:53:27;101104.09;;;6.02;100.00
10060;BME280;5069;49.306;8.636;2023-02-01T03:56:31;101098.03;;;5.92;100.00
10060;BME280;5069;49.306;8.636;2023-02-01T03:59:39;101109.31;;;5.99;100.00
10060;BME280;5069;49.306;8.636;2023-02-01T04:02:40;101101.47;;;5.94;100.00
10060;BME280;5069;49.306;8.636;2023-02-01T04:05:42;101103.16;;;6.10;100.00
10060;BME280;5069;49.306;8.636;2023-02-01T04:08:44;101106.66;;;6.05;100.00
10060;BME280;5069;49.306;8.636;2023-02-01T04:11:45;101105.84;;;5.97;100.00
10060;BME280;5069;49.306;8.636;2023-02-01T04:14:47;101098.84;;;6.00;100.00
10060;BME280;5069;49.306;8.636;2023-02-01T04:17:48;101101.47;;;6.00;100.00
10060;BME280;5069;49.306;8.636;2023-02-01T04:20:49;101088.41;;;5.96;100.00
10060;BME280;5069;49.306;8.636;2023-02-01T04:23:51;101085.78;;;5.94;100.00
10060;BME280;5069;49.306;8.636;2023-02-01T04:26:53;101089.25;;;5.93;100.00
10060;BME280;5069;49.306;8.636;2023-02-01T04:29:54;101072.69;;;5.94;100.00
10060;BME280;5069;49.306;8.636;2023-02-01T04:32:58;101057.88;;;5.87;100.00
10060;BME280;5069;49.306;8.636;2023-02-01T04:36:00;101056.13;;;5.86;100.00
10060;BME280;5069;49.306;8.636;2023-02-01T04:39:01;101070.97;;;5.84;100.00
10060;BME280;5069;49.306;8.636;2023-02-01T04:42:03;101084.91;;;5.83;100.00
10060;BME280;5069;49.306;8.636;2023-02-01T04:45:05;101074.47;;;5.89;100.00
10060;BME280;5069;49.306;8.636;2023-02-01T04:48:07;101084.06;;;5.87;100.00
10060;BME280;5069;49.306;8.636;2023-02-01T04:51:10;101085.81;;;5.91;100.00
10060;BME280;5069;49.306;8.636;2023-02-01T04:54:11;101089.28;;;5.90;100.00
10060;BME280;5069;49.306;8.636;2023-02-01T04:57:12;101102.34;;;5.84;100.00
10060;BME280;5069;49.306;8.636;2023-02-01T05:00:16;101099.72;;;5.81;100.00
10060;BME280;5069;49.306;8.636;2023-02-01T05:03:18;101089.28;;;5.90;100.00
10060;BME280;5069;49.306;8.636;2023-02-01T05:06:20;101088.41;;;5.90;100.00
10060;BME280;5069;49.306;8.636;2023-02-01T05:09:21;101076.22;;;5.92;100.00
10060;BME280;5069;49.306;8.636;2023-02-01T05:12:23;101087.53;;;5.83;100.00
10060;BME280;5069;49.306;8.636;2023-02-01T05:15:43;101089.28;;;5.81;100.00
10060;BME280;5069;49.306;8.636;2023-02-01T05:18:45;101098.00;;;5.75;100.00
10060;BME280;5069;49.306;8.636;2023-02-01T05:21:46;101091.00;;;5.82;100.00
10060;BME280;5069;49.306;8.636;2023-02-01T05:24:48;101091.91;;;5.79;100.00
10060;BME280;5069;49.306;8.636;2023-02-01T05:27:49;101087.53;;;5.81;100.00
10060;BME280;5069;49.306;8.636;2023-02-01T05:30:51;101102.38;;;5.86;100.00
10060;BME280;5069;49.306;8.636;2023-02-01T05:33:52;101096.25;;;5.82;100.00
10060;BME280;5069;49.306;8.636;2023-02-01T05:36:54;101093.63;;;5.85;100.00
10060;BME280;5069;49.306;8.636;2023-02-01T05:39:55;101091.88;;;5.81;100.00
10060;BME280;5069;49.306;8.636;2023-02-01T05:42:56;101106.72;;;5.82;100.00
10060;BME280;5069;49.306;8.636;2023-02-01T05:45:58;101104.09;;;5.85;100.00
10060;BME280;5069;49.306;8.636;2023-02-01T05:48:59;101110.22;;;5.90;100.00
10060;BME280;5069;49.306;8.636;2023-02-01T05:52:01;101106.75;;;5.79;100.00
10060;BME280;5069;49.306;8.636;2023-02-01T05:55:03;101105.00;;;5.75;100.00
10060;BME280;5069;49.306;8.636;2023-02-01T05:58:05;101094.56;;;5.69;100.00
10060;BME280;5069;49.306;8.636;2023-02-01T06:01:06;101099.78;;;5.66;100.00
10060;BME280;5069;49.306;8.636;2023-02-01T06:04:08;101098.06;;;5.59;100.00
10060;BME280;5069;49.306;8.636;2023-02-01T06:07:09;101105.03;;;5.60;100.00
10060;BME280;5069;49.306;8.636;2023-02-01T06:10:11;101099.78;;;5.60;100.00
10060;BME280;5069;49.306;8.636;2023-02-01T06:13:12;101100.66;;;5.60;100.00
10060;BME280;5069;49.306;8.636;2023-02-01T06:16:14;101098.06;;;5.56;100.00
10060;BME280;5069;49.306;8.636;2023-02-01T06:19:16;101099.81;;;5.48;100.00
10060;BME280;5069;49.306;8.636;2023-02-01T06:22:18;101103.31;;;5.50;100.00
10060;BME280;5069;49.306;8.636;2023-02-01T06:25:19;101103.28;;;5.62;100.00
10060;BME280;5069;49.306;8.636;2023-02-01T06:28:22;101105.00;;;5.66;100.00
10060;BME280;5069;49.306;8.636;2023-02-01T06:31:25;101106.81;;;5.58;100.00
10060;BME280;5069;49.306;8.636;2023-02-01T06:34:27;101099.81;;;5.51;100.00
10060;BME280;5069;49.306;8.636;2023-02-01T06:37:28;101104.19;;;5.49;100.00
10060;BME280;5069;49.306;8.636;2023-02-01T06:40:30;101101.56;;;5.58;100.00
10060;BME280;5069;49.306;8.636;2023-02-01T06:43:32;101103.28;;;5.59;100.00
10060;BME280;5069;49.306;8.636;2023-02-01T06:46:34;101108.53;;;5.56;100.00
10060;BME280;5069;49.306;8.636;2023-02-01T06:49:35;101105.91;;;5.56;100.00
10060;BME280;5069;49.306;8.636;2023-02-01T06:52:37;101101.56;;;5.58;100.00
10060;BME280;5069;49.306;8.636;2023-02-01T06:55:38;101098.06;;;5.59;100.00
10060;BME280;5069;49.306;8.636;2023-02-01T06:58:39;101110.25;;;5.66;100.00
10060;BME280;5069;49.306;8.636;2023-02-01T07:01:41;101100.66;;;5.71;100.00
10060;BME280;5069;49.306;8.636;2023-02-01T07:04:43;101124.22;;;5.68;100.00
10060;BME280;5069;49.306;8.636;2023-02-01T07:07:44;101113.75;;;5.62;100.00
10060;BME280;5069;49.306;8.636;2023-02-01T07:10:45;101116.38;;;5.56;100.00
10060;BME280;5069;49.306;8.636;2023-02-01T07:13:47;101128.56;;;5.58;100.00
10060;BME280;5069;49.306;8.636;2023-02-01T07:16:49;101136.41;;;5.64;100.00
10060;BME280;5069;49.306;8.636;2023-02-01T07:19:50;101139.88;;;5.65;100.00
10060;BME280;5069;49.306;8.636;2023-02-01T07:22:56;101130.28;;;5.71;100.00
10060;BME280;5069;49.306;8.636;2023-02-01T07:26:01;101121.56;;;5.74;100.00
10060;BME280;5069;49.306;8.636;2023-02-01T07:29:03;101125.06;;;5.71;100.00
10060;BME280;5069;49.306;8.636;2023-02-01T07:32:04;101112.84;;;5.78;100.00
10060;BME280;5069;49.306;8.636;2023-02-01T07:35:06;101113.72;;;5.88;100.00
10060;BME280;5069;49.306;8.636;2023-02-01T07:38:08;101122.41;;;5.85;100.00
10060;BME280;5069;49.306;8.636;2023-02-01T07:41:09;101134.66;;;5.92;100.00
10060;BME280;5069;49.306;8.636;2023-02-01T07:44:11;101118.94;;;5.92;100.00
10060;BME280;5069;49.306;8.636;2023-02-01T07:47:12;101102.28;;;6.10;100.00
10060;BME280;5069;49.306;8.636;2023-02-01T07:50:14;101107.56;;;6.02;100.00
10060;BME280;5069;49.306;8.636;2023-02-01T07:53:15;101104.94;;;6.04;100.00
10060;BME280;5069;49.306;8.636;2023-02-01T07:56:18;101116.31;;;5.97;100.00
10060;BME280;5069;49.306;8.636;2023-02-01T07:59:20;101117.19;;;5.94;100.00
10060;BME280;5069;49.306;8.636;2023-02-01T08:02:22;101129.41;;;5.95;100.00
10060;BME280;5069;49.306;8.636;2023-02-01T08:05:23;101141.59;;;5.99;100.00
10060;BME280;5069;49.306;8.636;2023-02-01T08:08:25;101161.69;;;5.91;100.00
10060;BME280;5069;49.306;8.636;2023-02-01T08:11:26;101169.53;;;5.87;100.00
10060;BME280;5069;49.306;8.636;2023-02-01T08:14:28;101173.00;;;5.87;100.00
10060;BME280;5069;49.306;8.636;2023-02-01T08:17:30;101181.75;;;5.91;100.00
10060;BME280;5069;49.306;8.636;2023-02-01T08:20:31;101206.16;;;5.97;100.00
10060;BME280;5069;49.306;8.636;2023-02-01T08:23:36;101192.19;;;6.01;100.00
10060;BME280;5069;49.306;8.636;2023-02-01T08:26:38;101194.78;;;5.98;100.00
10060;BME280;5069;49.306;8.636;2023-02-01T08:29:40;101196.56;;;6.01;100.00
10060;BME280;5069;49.306;8.636;2023-02-01T08:32:41;101188.69;;;5.99;100.00
10060;BME280;5069;49.306;8.636;2023-02-01T08:35:42;101190.44;;;6.00;100.00
10060;BME280;5069;49.306;8.636;2023-02-01T08:38:45;101187.78;;;6.12;100.00
10060;BME280;5069;49.306;8.636;2023-02-01T08:41:46;101181.66;;;6.24;100.00
10060;BME280;5069;49.306;8.636;2023-02-01T08:45:08;101184.25;;;6.27;100.00
10060;BME280;5069;49.306;8.636;2023-02-01T08:48:10;101186.88;;;6.32;100.00
10060;BME280;5069;49.306;8.636;2023-02-01T08:51:12;101176.41;;;6.29;100.00
10060;BME280;5069;49.306;8.636;2023-02-01T08:54:14;101177.25;;;6.37;100.00
10060;BME280;5069;49.306;8.636;2023-02-01T08:57:16;101177.22;;;6.41;100.00
10060;BME280;5069;49.306;8.636;2023-02-01T09:00:18;101176.31;;;6.53;100.00
10060;BME280;5069;49.306;8.636;2023-02-01T09:03:19;101176.31;;;6.53;100.00
10060;BME280;5069;49.306;8.636;2023-02-01T09:06:21;101179.75;;;6.58;100.00
10060;BME280;5069;49.306;8.636;2023-02-01T09:09:23;101172.75;;;6.61;100.00
10060;BME280;5069;49.306;8.636;2023-02-01T09:12:24;101184.13;;;6.59;100.00
10060;BME280;5069;49.306;8.636;2023-02-01T09:15:26;101178.00;;;6.66;100.00
10060;BME280;5069;49.306;8.636;2023-02-01T09:18:27;101183.19;;;6.69;100.00
10060;BME280;5069;49.306;8.636;2023-02-01T09:21:29;101194.53;;;6.74;100.00
10060;BME280;5069;49.306;8.636;2023-02-01T09:24:30;101211.09;;;6.79;100.00
10060;BME280;5069;49.306;8.636;2023-02-01T09:27:32;101206.66;;;6.92;100.00
10060;BME280;5069;49.306;8.636;2023-02-01T09:30:33;101194.47;;;6.86;100.00
10060;BME280;5069;49.306;8.636;2023-02-01T09:33:35;101194.41;;;6.95;100.00
10060;BME280;5069;49.306;8.636;2023-02-01T09:36:37;101190.91;;;6.95;100.00
10060;BME280;5069;49.306;8.636;2023-02-01T09:39:38;101211.06;;;6.85;100.00
10060;BME280;5069;49.306;8.636;2023-02-01T09:46:15;101208.50;;;6.78;100.00
10060;BME280;5069;49.306;8.636;2023-02-01T09:49:24;101226.00;;;6.70;100.00
10060;BME280;5069;49.306;8.636;2023-02-01T09:52:55;101216.31;;;6.85;100.00
10060;BME280;5069;49.306;8.636;2023-02-01T09:56:10;101221.44;;;7.03;100.00
10060;BME280;5069;49.306;8.636;2023-02-01T09:59:29;101244.16;;;7.06;100.00
10060;BME280;5069;49.306;8.636;2023-02-01T10:02:35;101245.88;;;7.09;100.00
10060;BME280;5069;49.306;8.636;2023-02-01T10:05:57;101258.09;;;7.13;100.00
10060;BME280;5069;49.306;8.636;2023-02-01T10:15:57;101256.31;;;7.21;100.00
10060;BME280;5069;49.306;8.636;2023-02-01T10:19:36;101264.09;;;7.33;100.00
10060;BME280;5069;49.306;8.636;2023-02-01T10:22:46;101261.47;;;7.33;100.00
10060;BME280;5069;49.306;8.636;2023-02-01T10:29:24;101270.19;;;7.35;100.00
10060;BME280;5069;49.306;8.636;2023-02-01T10:32:33;101264.97;;;7.32;100.00
10060;BME280;5069;49.306;8.636;2023-02-01T10:35:38;101277.25;;;7.27;100.00
10060;BME280;5069;49.306;8.636;2023-02-01T10:38:43;101268.50;;;7.25;100.00
10060;BME280;5069;49.306;8.636;2023-02-01T10:41:46;101258.94;;;7.19;100.00
10060;BME280;5069;49.306;8.636;2023-02-01T10:44:48;101250.22;;;7.16;100.00
10060;BME280;5069;49.306;8.636;2023-02-01T10:47:51;101255.53;;;7.05;100.00
10060;BME280;5069;49.306;8.636;2023-02-01T10:50:57;101256.41;;;7.02;100.00
10060;BME280;5069;49.306;8.636;2023-02-01T10:54:10;101249.41;;;7.04;100.00
10060;BME280;5069;49.306;8.636;2023-02-01T10:57:22;101251.16;;;7.05;100.00
10060;BME280;5069;49.306;8.636;2023-02-01T11:00:26;101243.22;;;7.16;100.00
10060;BME280;5069;49.306;8.636;2023-02-01T11:06:41;101233.59;;;7.17;100.00
10060;BME280;5069;49.306;8.636;2023-02-01T11:09:50;101237.94;;;7.19;100.00
10060;BME280;5069;49.306;8.636;2023-02-01T11:12:55;101223.09;;;7.23;100.00
10060;BME280;5069;49.306;8.636;2023-02-01T11:15:57;101219.56;;;7.24;100.00
10060;BME280;5069;49.306;8.636;2023-02-01T11:18:58;101202.91;;;7.29;100.00
10060;BME280;5069;49.306;8.636;2023-02-01T11:22:00;101202.00;;;7.35;100.00
10060;BME280;5069;49.306;8.636;2023-02-01T11:25:08;101201.16;;;7.33;100.00
10060;BME280;5069;49.306;8.636;2023-02-01T11:28:10;101188.91;;;7.33;100.00
10060;BME280;5069;49.306;8.636;2023-02-01T11:31:13;101195.06;;;7.25;100.00
10060;BME280;5069;49.306;8.636;2023-02-01T11:34:21;101188.09;;;7.27;100.00
10060;BME280;5069;49.306;8.636;2023-02-01T11:37:40;101186.41;;;7.12;100.00
10060;BME280;5069;49.306;8.636;2023-02-01T11:40:42;101177.72;;;7.12;100.00
10060;BME280;5069;49.306;8.636;2023-02-01T11:43:58;101178.56;;;7.14;100.00
10060;BME280;5069;49.306;8.636;2023-02-01T11:50:38;101175.00;;;7.19;100.00
10060;BME280;5069;49.306;8.636;2023-02-01T11:54:01;101179.38;;;7.23;100.00
10060;BME280;5069;49.306;8.636;2023-02-01T11:57:21;101182.88;;;7.18;100.00
10060;BME280;5069;49.306;8.636;2023-02-01T12:07:21;101174.88;;;7.37;99.25
10060;BME280;5069;49.306;8.636;2023-02-01T12:21:06;101187.13;;;7.35;95.84
10060;BME280;5069;49.306;8.636;2023-02-01T12:27:43;101196.81;;;7.29;96.01
10060;BME280;5069;49.306;8.636;2023-02-01T12:31:00;101191.56;;;7.29;95.43
10060;BME280;5069;49.306;8.636;2023-02-01T12:44:29;101174.97;;;7.24;93.69
10060;BME280;5069;49.306;8.636;2023-02-01T12:51:33;101170.59;;;7.27;91.62
10060;BME280;5069;49.306;8.636;2023-02-01T12:57:50;101161.81;;;7.30;91.31
10060;BME280;5069;49.306;8.636;2023-02-01T13:00:59;101154.00;;;7.28;89.94
10060;BME280;5069;49.306;8.636;2023-02-01T13:04:09;101155.69;;;7.29;88.47
10060;BME280;5069;49.306;8.636;2023-02-01T13:07:17;101152.19;;;7.33;88.37
10060;BME280;5069;49.306;8.636;2023-02-01T13:10:41;101141.66;;;7.38;87.32
10060;BME280;5069;49.306;8.636;2023-02-01T13:13:52;101143.41;;;7.39;88.54
10060;BME280;5069;49.306;8.636;2023-02-01T13:17:00;101126.78;;;7.37;86.85
10060;BME280;5069;49.306;8.636;2023-02-01T13:20:34;101123.28;;;7.38;86.90
10060;BME280;5069;49.306;8.636;2023-02-01T13:23:38;101118.06;;;7.35;85.88
10060;BME280;5069;49.306;8.636;2023-02-01T13:26:40;101106.72;;;7.34;85.50
10060;BME280;5069;49.306;8.636;2023-02-01T13:29:51;101107.56;;;7.38;84.09
10060;BME280;5069;49.306;8.636;2023-02-01T13:36:58;101099.69;;;7.39;85.14
10060;BME280;5069;49.306;8.636;2023-02-01T13:40:30;101101.41;;;7.40;85.33
10060;BME280;5069;49.306;8.636;2023-02-01T13:43:36;101098.81;;;7.36;84.98
10060;BME280;5069;49.306;8.636;2023-02-01T13:46:42;101111.06;;;7.37;84.00
10060;BME280;5069;49.306;8.636;2023-02-01T13:49:45;101113.63;;;7.43;83.81
10060;BME280;5069;49.306;8.636;2023-02-01T13:52:54;101104.88;;;7.41;84.76
10060;BME280;5069;49.306;8.636;2023-02-01T14:08:46;101110.22;;;7.33;86.30
10060;BME280;5069;49.306;8.636;2023-02-01T14:11:53;101127.72;;;7.34;85.17
10060;BME280;5069;49.306;8.636;2023-02-01T14:15:22;101109.31;;;7.36;84.38
10060;BME280;5069;49.306;8.636;2023-02-01T14:21:53;101111.09;;;7.34;83.87
10060;BME280;5069;49.306;8.636;2023-02-01T14:25:00;101111.03;;;7.40;83.60
10060;BME280;5069;49.306;8.636;2023-02-01T14:28:01;101107.56;;;7.38;81.61
10060;BME280;5069;49.306;8.636;2023-02-01T14:31:17;101126.72;;;7.46;81.58
10060;BME280;5069;49.306;8.636;2023-02-01T14:34:32;101119.69;;;7.51;81.35
10060;BME280;5069;49.306;8.636;2023-02-01T14:37:37;101126.78;;;7.40;81.85
10060;BME280;5069;49.306;8.636;2023-02-01T14:40:40;101099.66;;;7.41;82.72
10060;BME280;5069;49.306;8.636;2023-02-01T14:44:13;101126.72;;;7.46;81.70
10060;BME280;5069;49.306;8.636;2023-02-01T14:53:41;101121.56;;;7.37;82.31
10060;BME280;5069;49.306;8.636;2023-02-01T14:56:45;101127.56;;;7.50;81.89
10060;BME280;5069;49.306;8.636;2023-02-01T14:59:49;101126.75;;;7.43;82.02
10060;BME280;5069;49.306;8.636;2023-02-01T15:03:15;101131.16;;;7.36;82.45
10060;BME280;5069;49.306;8.636;2023-02-01T15:06:40;101128.53;;;7.38;82.35
10060;BME280;5069;49.306;8.636;2023-02-01T15:09:47;101135.44;;;7.50;80.99
10060;BME280;5069;49.306;8.636;2023-02-01T15:12:49;101149.38;;;7.53;81.04
10060;BME280;5069;49.306;8.636;2023-02-01T15:16:05;101140.63;;;7.57;80.27
10060;BME280;5069;49.306;8.636;2023-02-01T15:19:13;101145.81;;;7.60;80.16
10060;BME280;5069;49.306;8.636;2023-02-01T15:22:18;101149.31;;;7.59;80.00
10060;BME280;5069;49.306;8.636;2023-02-01T15:25:23;101146.75;;;7.55;80.84
10060;BME280;5069;49.306;8.636;2023-02-01T15:28:26;101143.25;;;7.54;80.51
10060;BME280;5069;49.306;8.636;2023-02-01T15:31:36;101147.63;;;7.52;80.57
10060;BME280;5069;49.306;8.636;2023-02-01T15:34:46;101140.50;;;7.66;79.21
10060;BME280;5069;49.306;8.636;2023-02-01T15:37:49;101141.44;;;7.61;79.48
10060;BME280;5069;49.306;8.636;2023-02-01T15:41:15;101137.06;;;7.61;79.18
10060;BME280;5069;49.306;8.636;2023-02-01T15:44:41;101135.31;;;7.60;79.49
10060;BME280;5069;49.306;8.636;2023-02-01T15:47:46;101135.28;;;7.63;79.32
10060;BME280;5069;49.306;8.636;2023-02-01T15:50:49;101126.59;;;7.58;80.24
10060;BME280;5069;49.306;8.636;2023-02-01T15:53:55;101116.06;;;7.61;79.64
10060;BME280;5069;49.306;8.636;2023-02-01T15:57:01;101120.47;;;7.59;80.43
10060;BME280;5069;49.306;8.636;2023-02-01T16:00:17;101119.63;;;7.54;80.93
10060;BME280;5069;49.306;8.636;2023-02-01T16:03:42;101120.50;;;7.55;81.03
10060;BME280;5069;49.306;8.636;2023-02-01T16:06:55;101122.25;;;7.57;82.05
10060;BME280;5069;49.306;8.636;2023-02-01T16:09:59;101119.69;;;7.51;82.64
10060;BME280;5069;49.306;8.636;2023-02-01T16:13:07;101121.34;;;7.58;82.50
10060;BME280;5069;49.306;8.636;2023-02-01T16:16:09;101111.81;;;7.51;83.26
10060;BME280;5069;49.306;8.636;2023-02-01T16:19:15;101125.75;;;7.53;83.82
10060;BME280;5069;49.306;8.636;2023-02-01T16:22:16;101117.06;;;7.46;83.73
10060;BME280;5069;49.306;8.636;2023-02-01T16:25:18;101122.31;;;7.46;83.79
10060;BME280;5069;49.306;8.636;2023-02-01T16:28:19;101128.50;;;7.44;83.98
10060;BME280;5069;49.306;8.636;2023-02-01T16:31:25;101133.72;;;7.45;84.16
10060;BME280;5069;49.306;8.636;2023-02-01T16:34:28;101129.31;;;7.47;84.07
10060;BME280;5069;49.306;8.636;2023-02-01T16:37:30;101119.75;;;7.45;84.81
10060;BME280;5069;49.306;8.636;2023-02-01T16:40:34;101126.78;;;7.38;85.52
10060;BME280;5069;49.306;8.636;2023-02-01T16:43:35;101119.69;;;7.48;85.03
10060;BME280;5069;49.306;8.636;2023-02-01T16:46:42;101126.56;;;7.61;83.50
10060;BME280;5069;49.306;8.636;2023-02-01T16:49:44;101125.72;;;7.58;84.02
10060;BME280;5069;49.306;8.636;2023-02-01T16:52:46;101130.09;;;7.59;83.73
10060;BME280;5069;49.306;8.636;2023-02-01T16:55:47;101138.00;;;7.54;84.30
10060;BME280;5069;49.306;8.636;2023-02-01T16:58:50;101145.88;;;7.54;84.70
10060;BME280;5069;49.306;8.636;2023-02-01T17:01:52;101142.38;;;7.55;84.24
10060;BME280;5069;49.306;8.636;2023-02-01T17:04:53;101131.00;;;7.55;84.47
10060;BME280;5069;49.306;8.636;2023-02-01T17:07:57;101123.13;;;7.55;84.44
10060;BME280;5069;49.306;8.636;2023-02-01T17:10:59;101128.34;;;7.59;83.93
10060;BME280;5069;49.306;8.636;2023-02-01T17:14:17;101125.75;;;7.55;84.26
10060;BME280;5069;49.306;8.636;2023-02-01T17:17:20;101126.63;;;7.54;84.65
10060;BME280;5069;49.306;8.636;2023-02-01T17:20:38;101133.69;;;7.47;85.51
10060;BME280;5069;49.306;8.636;2023-02-01T17:23:39;101131.97;;;7.46;85.62
10060;BME280;5069;49.306;8.636;2023-02-01T17:26:42;101128.50;;;7.44;86.27
10060;BME280;5069;49.306;8.636;2023-02-01T17:29:44;101119.63;;;7.54;85.58
10060;BME280;5069;49.306;8.636;2023-02-01T17:32:47;101123.13;;;7.56;85.30
10060;BME280;5069;49.306;8.636;2023-02-01T17:35:49;101126.63;;;7.57;84.85
10060;BME280;5069;49.306;8.636;2023-02-01T17:38:51;101132.81;;;7.50;85.89
10060;BME280;5069;49.306;8.636;2023-02-01T17:42:10;101121.50;;;7.43;86.41
10060;BME280;5069;49.306;8.636;2023-02-01T17:45:32;101120.59;;;7.45;86.27
10060;BME280;5069;49.306;8.636;2023-02-01T17:48:34;101123.19;;;7.47;86.13
10060;BME280;5069;49.306;8.636;2023-02-01T17:51:36;101126.75;;;7.44;86.09
10060;BME280;5069;49.306;8.636;2023-02-01T17:54:38;101130.22;;;7.45;86.04
10060;BME280;5069;49.306;8.636;2023-02-01T17:57:40;101135.38;;;7.54;85.02
10060;BME280;5069;49.306;8.636;2023-02-01T18:00:42;101139.81;;;7.47;85.44
10060;BME280;5069;49.306;8.636;2023-02-01T18:03:44;101144.19;;;7.47;85.44
10060;BME280;5069;49.306;8.636;2023-02-01T18:06:46;101144.22;;;7.41;86.17
10060;BME280;5069;49.306;8.636;2023-02-01T18:09:47;101142.44;;;7.51;85.10
10060;BME280;5069;49.306;8.636;2023-02-01T18:12:48;101136.31;;;7.47;85.54